Minnesota Lake, Minnesota
Current Conditions -  °F | °C
As of 12:34 AM on Wednesday 28 Jan 2015 (Local Time) from KACQ Reporting Station
Haze Haze  
Wind Chill: 23°   Ceiling: 700
Heat Index: 32°   Visibility: 5mi
Dew Point: 30°   Wind: 12mph
Humidity: 93%   Direction: 130°SE
Pressure: 30.1"   Gusts: 17mph
Location:  43.84°N, 93.83°W
Report Text: KACQ 280634Z AUTO 13010G15KT 5SM BR OVC007 00/M01 A3010 RMK AO2
Loading
Personal Weather Stations






























Interactive Weather Map New forecast layout! Learn more

10-Day Weather Forecast

Advertisements
Track Severe Weather on mobile